Atlas — SV6729 — position and weather

sailwx.info

Track history (hours):
 
Tides and Currents Weather Stations Pressure Air Temp Water Temp Dewpoint Dewpoint Depression Visibility Wind Speed Wind Dir Waves Ship Positions

Atlas

Last reported at 2015-May-29 01:29 UTC. Time now 2015-May-29 02:21 UTC.
Position N 37°57' E 023°37'.

Length 29 m; draft 5 m.

Type: Tug. MMSI: 239611000.

Date/timePositionNaut miles runAvg speedWind from/ knotsBaromVisibWave heightAir tempDewpointWater temp
2015-May-29 01:29N 37°57' E 023°37'0 0.0
2015-May-29 00:31N 37°57' E 023°37'0 0.0
2015-May-28 23:32N 37°57' E 023°37'0 0.0
2015-May-28 22:33N 37°57' E 023°37'0 0.0
2015-May-28 21:33N 37°57' E 023°37'0 0.0
2015-May-28 20:33N 37°57' E 023°37'0 0.0
2015-May-28 19:29N 37°57' E 023°37'3 3.2
2015-May-28 18:33N 37°58' E 023°33'4 3.9
2015-May-28 17:29N 38°02' E 023°32'0 0.2
2015-May-28 16:26N 38°02' E 023°32'0 0.0
2015-May-28 14:33N 38°02' E 023°32'0 0.0
2015-May-28 13:27N 38°02' E 023°32'0 0.0
2015-May-28 12:28N 38°02' E 023°32'0 0.0
2015-May-28 11:28N 38°02' E 023°32'0 0.0
2015-May-28 10:29N 38°02' E 023°32'0 0.0
2015-May-28 07:17N 38°02' E 023°32'2 2.6
2015-May-28 06:32N 38°02' E 023°30'0 0.1
2015-May-28 05:31N 38°02' E 023°30'4 3.8
2015-May-28 04:32N 37°59' E 023°33'3 2.7
2015-May-28 03:33N 37°57' E 023°36'1 0.0
2015-May-27 10:32N 37°57' E 023°37'2 2.3
2015-May-27 09:34N 37°57' E 023°34'2 2.0
2015-May-27 08:30N 37°58' E 023°36'0 0.2
2015-May-27 07:32N 37°57' E 023°37'1 0.8
2015-May-27 06:33N 37°57' E 023°36'2 1.8
2015-May-27 05:32N 37°58' E 023°33'2 1.8
2015-May-27 04:27N 37°57' E 023°36'0 0.1
2015-May-27 03:21N 37°57' E 023°36'1 0.0
2015-May-26 12:04N 37°57' E 023°37'0 0.0
2015-May-26 11:30N 37°57' E 023°37'0 0.0
2015-May-26 10:28N 37°57' E 023°37'0 0.0
2015-May-26 09:25N 37°57' E 023°37'0 0.0
2015-May-26 08:27N 37°57' E 023°37'0 0.0
2015-May-26 07:33N 37°57' E 023°37'6 5.5
2015-May-26 06:26N 38°02' E 023°32'5 5.9
2015-May-26 05:33N 37°57' E 023°33'2 1.6
2015-May-26 04:25N 37°57' E 023°36'1 0.8
2015-May-26 03:31N 37°57' E 023°37'0 0.0
2015-May-25 10:32N 37°57' E 023°37'0 0.0
2015-May-25 09:32N 37°57' E 023°37'0 0.3
2015-May-25 08:26N 37°57' E 023°36'0 0.3
2015-May-25 07:33N 37°57' E 023°36'1 0.5
2015-May-25 06:27N 37°57' E 023°37'0 0.0
2015-May-25 05:32N 37°57' E 023°37'1 0.6
2015-May-25 04:34N 37°57' E 023°36'1 0.8
2015-May-25 03:31N 37°57' E 023°35'1 0.0
2015-May-24 08:33N 37°57' E 023°36'0 0.1
2015-May-24 07:28N 37°57' E 023°37'0 0.0
2015-May-24 06:33N 37°57' E 023°37'2 2.2
2015-May-24 05:33N 37°57' E 023°34'0 0.1
2015-May-24 04:33N 37°58' E 023°34'2 2.1
2015-May-24 03:28N 37°57' E 023°37'0 0.0
2015-May-23 11:15N 37°57' E 023°37'0 0.0
2015-May-23 10:33N 37°57' E 023°37'0 0.0
2015-May-23 09:31N 37°57' E 023°37'1 0.8
2015-May-23 08:33N 37°57' E 023°36'1 0.8
2015-May-23 07:33N 37°56' E 023°37'6 5.6
2015-May-23 06:31N 38°01' E 023°33'1 0.4
2015-May-23 04:28N 38°02' E 023°32'0 0.0
2015-May-23 03:13N 38°02' E 023°32'0 0.0
2015-May-23 02:13N 38°02' E 023°32'0 0.0
2015-May-23 01:14N 38°02' E 023°32'0 0.0
2015-May-23 00:32N 38°02' E 023°32'0 0.0
2015-May-22 21:05N 38°02' E 023°32'3 4.2
2015-May-22 20:26N 38°01' E 023°36'0 0.0
2015-May-22 19:28N 38°01' E 023°36'0 0.0
2015-May-22 18:33N 38°01' E 023°36'0 0.0
2015-May-22 17:28N 38°01' E 023°36'0 0.0
2015-May-22 16:30N 38°01' E 023°36'0 0.0
2015-May-22 15:20N 38°01' E 023°36'0 0.0
2015-May-22 14:31N 38°01' E 023°36'0 0.0
2015-May-22 13:31N 38°01' E 023°36'1 0.5
2015-May-22 12:26N 38°01' E 023°35'2 0.6
2015-May-22 08:17N 38°02' E 023°32'1 1.9
2015-May-22 07:33N 38°01' E 023°32'5 5.4
2015-May-22 06:33N 37°57' E 023°37'1 0.7
2015-May-22 05:33N 37°57' E 023°36'0 0.0
2015-May-22 04:26N 37°57' E 023°36'1 0.7
2015-May-22 03:25N 37°57' E 023°37'2 0.1
2015-May-21 11:33N 37°57' E 023°34'5 4.5
2015-May-21 10:24N 38°02' E 023°32'0 0.0
2015-May-21 09:29N 38°02' E 023°32'2 1.0
2015-May-21 07:30N 38°02' E 023°30'0 0.0
2015-May-21 06:29N 38°02' E 023°30'6 6.7
2015-May-21 05:33N 37°57' E 023°35'0 0.5
2015-May-21 04:33N 37°57' E 023°36'1 0.7
2015-May-21 03:32N 37°57' E 023°37'0 0.0
2015-May-20 10:33N 37°57' E 023°36'0 0.2
2015-May-20 09:31N 37°57' E 023°37'1 0.8
2015-May-20 08:33N 37°57' E 023°36'1 0.8
2015-May-20 07:32N 37°57' E 023°37'0 0.0
2015-May-20 06:27N 37°57' E 023°37'0 0.5
2015-May-20 05:33N 37°57' E 023°36'0 0.1
2015-May-20 04:31N 37°57' E 023°36'1 0.5
2015-May-20 03:33N 37°57' E 023°37'0 0.0
2015-May-19 10:31N 37°57' E 023°37'0 0.0
2015-May-19 09:32N 37°57' E 023°37'0 0.1
2015-May-19 08:27N 37°57' E 023°36'0 0.1
2015-May-19 07:30N 37°57' E 023°37'1 1.0
2015-May-19 06:29N 37°57' E 023°35'0 0.3
2015-May-19 05:33N 37°57' E 023°35'1 0.9
2015-May-19 04:31N 37°57' E 023°37'0 0.0
2015-May-19 03:32N 37°57' E 023°37'  
Track history (hours):
 
Tides and Currents Weather Stations Pressure Air Temp Water Temp Dewpoint Dewpoint Depression Visibility Wind Speed Wind Dir Waves Ship Positions

Atlas

Last reported at 2015-May-29 01:29 UTC. Time now 2015-May-29 02:21 UTC.
Position N 37°57' E 023°37'.

Length 29 m; draft 5 m.

Type: Tug. MMSI: 239611000.

Date/timePositionNaut miles runAvg speedWind from/ knotsBaromVisibWave heightAir tempDewpointWater temp
2015-May-29 01:29N 37°57' E 023°37'0 0.0
2015-May-29 00:31N 37°57' E 023°37'0 0.0
2015-May-28 23:32N 37°57' E 023°37'0 0.0
2015-May-28 22:33N 37°57' E 023°37'0 0.0
2015-May-28 21:33N 37°57' E 023°37'0 0.0
2015-May-28 20:33N 37°57' E 023°37'0 0.0
2015-May-28 19:29N 37°57' E 023°37'3 3.2
2015-May-28 18:33N 37°58' E 023°33'4 3.9
2015-May-28 17:29N 38°02' E 023°32'0 0.2
2015-May-28 16:26N 38°02' E 023°32'0 0.0
2015-May-28 14:33N 38°02' E 023°32'0 0.0
2015-May-28 13:27N 38°02' E 023°32'0 0.0
2015-May-28 12:28N 38°02' E 023°32'0 0.0
2015-May-28 11:28N 38°02' E 023°32'0 0.0
2015-May-28 10:29N 38°02' E 023°32'0 0.0
2015-May-28 07:17N 38°02' E 023°32'2 2.6
2015-May-28 06:32N 38°02' E 023°30'0 0.1
2015-May-28 05:31N 38°02' E 023°30'4 3.8
2015-May-28 04:32N 37°59' E 023°33'3 2.7
2015-May-28 03:33N 37°57' E 023°36'1 0.0
2015-May-27 10:32N 37°57' E 023°37'2 2.3
2015-May-27 09:34N 37°57' E 023°34'2 2.0
2015-May-27 08:30N 37°58' E 023°36'0 0.2
2015-May-27 07:32N 37°57' E 023°37'1 0.8
2015-May-27 06:33N 37°57' E 023°36'2 1.8
2015-May-27 05:32N 37°58' E 023°33'2 1.8
2015-May-27 04:27N 37°57' E 023°36'0 0.1
2015-May-27 03:21N 37°57' E 023°36'1 0.0
2015-May-26 12:04N 37°57' E 023°37'0 0.0
2015-May-26 11:30N 37°57' E 023°37'0 0.0
2015-May-26 10:28N 37°57' E 023°37'0 0.0
2015-May-26 09:25N 37°57' E 023°37'0 0.0
2015-May-26 08:27N 37°57' E 023°37'0 0.0
2015-May-26 07:33N 37°57' E 023°37'6 5.5
2015-May-26 06:26N 38°02' E 023°32'5 5.9
2015-May-26 05:33N 37°57' E 023°33'2 1.6
2015-May-26 04:25N 37°57' E 023°36'1 0.8
2015-May-26 03:31N 37°57' E 023°37'0 0.0
2015-May-25 10:32N 37°57' E 023°37'0 0.0
2015-May-25 09:32N 37°57' E 023°37'0 0.3
2015-May-25 08:26N 37°57' E 023°36'0 0.3
2015-May-25 07:33N 37°57' E 023°36'1 0.5
2015-May-25 06:27N 37°57' E 023°37'0 0.0
2015-May-25 05:32N 37°57' E 023°37'1 0.6
2015-May-25 04:34N 37°57' E 023°36'1 0.8
2015-May-25 03:31N 37°57' E 023°35'1 0.0
2015-May-24 08:33N 37°57' E 023°36'0 0.1
2015-May-24 07:28N 37°57' E 023°37'0 0.0
2015-May-24 06:33N 37°57' E 023°37'2 2.2
2015-May-24 05:33N 37°57' E 023°34'0 0.1
2015-May-24 04:33N 37°58' E 023°34'2 2.1
2015-May-24 03:28N 37°57' E 023°37'0 0.0
2015-May-23 11:15N 37°57' E 023°37'0 0.0
2015-May-23 10:33N 37°57' E 023°37'0 0.0
2015-May-23 09:31N 37°57' E 023°37'1 0.8
2015-May-23 08:33N 37°57' E 023°36'1 0.8
2015-May-23 07:33N 37°56' E 023°37'6 5.6
2015-May-23 06:31N 38°01' E 023°33'1 0.4
2015-May-23 04:28N 38°02' E 023°32'0 0.0
2015-May-23 03:13N 38°02' E 023°32'0 0.0
2015-May-23 02:13N 38°02' E 023°32'0 0.0
2015-May-23 01:14N 38°02' E 023°32'0 0.0
2015-May-23 00:32N 38°02' E 023°32'0 0.0
2015-May-22 21:05N 38°02' E 023°32'3 4.2
2015-May-22 20:26N 38°01' E 023°36'0 0.0
2015-May-22 19:28N 38°01' E 023°36'0 0.0
2015-May-22 18:33N 38°01' E 023°36'0 0.0
2015-May-22 17:28N 38°01' E 023°36'0 0.0
2015-May-22 16:30N 38°01' E 023°36'0 0.0
2015-May-22 15:20N 38°01' E 023°36'0 0.0
2015-May-22 14:31N 38°01' E 023°36'0 0.0
2015-May-22 13:31N 38°01' E 023°36'1 0.5
2015-May-22 12:26N 38°01' E 023°35'2 0.6
2015-May-22 08:17N 38°02' E 023°32'1 1.9
2015-May-22 07:33N 38°01' E 023°32'5 5.4
2015-May-22 06:33N 37°57' E 023°37'1 0.7
2015-May-22 05:33N 37°57' E 023°36'0 0.0
2015-May-22 04:26N 37°57' E 023°36'1 0.7
2015-May-22 03:25N 37°57' E 023°37'2 0.1
2015-May-21 11:33N 37°57' E 023°34'5 4.5
2015-May-21 10:24N 38°02' E 023°32'0 0.0
2015-May-21 09:29N 38°02' E 023°32'2 1.0
2015-May-21 07:30N 38°02' E 023°30'0 0.0
2015-May-21 06:29N 38°02' E 023°30'6 6.7
2015-May-21 05:33N 37°57' E 023°35'0 0.5
2015-May-21 04:33N 37°57' E 023°36'1 0.7
2015-May-21 03:32N 37°57' E 023°37'0 0.0
2015-May-20 10:33N 37°57' E 023°36'0 0.2
2015-May-20 09:31N 37°57' E 023°37'1 0.8
2015-May-20 08:33N 37°57' E 023°36'1 0.8
2015-May-20 07:32N 37°57' E 023°37'0 0.0
2015-May-20 06:27N 37°57' E 023°37'0 0.5
2015-May-20 05:33N 37°57' E 023°36'0 0.1
2015-May-20 04:31N 37°57' E 023°36'1 0.5
2015-May-20 03:33N 37°57' E 023°37'0 0.0
2015-May-19 10:31N 37°57' E 023°37'0 0.0
2015-May-19 09:32N 37°57' E 023°37'0 0.1
2015-May-19 08:27N 37°57' E 023°36'0 0.1
2015-May-19 07:30N 37°57' E 023°37'1 1.0
2015-May-19 06:29N 37°57' E 023°35'0 0.3
2015-May-19 05:33N 37°57' E 023°35'1 0.9
2015-May-19 04:31N 37°57' E 023°37'0 0.0
2015-May-19 03:32N 37°57' E 023°37'  

Dump ship's entire track history